Time;durP1;ratioP1;P1;durP2;ratioP2;P2;SDS_P1;SDS_P2;PMS_P1;PMS_P2;Temp;Humidity;BMP_temperature;BMP_pressure;BME280_temperature;BME280_humidity;BME280_pressure;Samples;Min_cycle;Max_cycle;Signal;HPM_P1;HPM_P2
2021/12/29 00:00:30;;;;;;;14.10;7.40;;;;;;;0.31;82.90;95345.46;108073;1284;40935;-74
2021/12/29 00:03:11;;;;;;;15.80;7.30;;;;;;;0.36;82.85;95350.57;107883;1284;38712;-74
2021/12/29 00:05:44;;;;;;;11.50;6.30;;;;;;;0.38;82.65;95355.33;108025;1284;40381;-74
2021/12/29 00:08:13;;;;;;;11.30;6.50;;;;;;;0.37;82.70;95356.31;108017;1284;39327;-75
2021/12/29 00:10:41;;;;;;;10.00;5.50;;;;;;;0.38;82.48;95363.20;108177;1284;30640;-74
2021/12/29 00:13:09;;;;;;;12.00;6.00;;;;;;;0.39;82.53;95364.56;108071;1279;36243;-74
2021/12/29 00:15:38;;;;;;;10.90;5.80;;;;;;;0.39;82.36;95360.50;107903;1284;29892;-74
2021/12/29 00:18:06;;;;;;;12.40;6.40;;;;;;;0.39;82.23;95365.39;107923;1284;40215;-74
2021/12/29 00:20:34;;;;;;;10.60;6.30;;;;;;;0.39;82.20;95368.42;108069;1284;39781;-74
2021/12/29 00:23:05;;;;;;;12.70;6.40;;;;;;;0.38;82.04;95376.38;107898;1283;33743;-74
2021/12/29 00:25:33;;;;;;;13.30;6.60;;;;;;;0.37;82.25;95382.06;107878;1284;37002;-74
2021/12/29 00:28:02;;;;;;;11.80;6.70;;;;;;;0.37;82.07;95376.90;107915;1284;31781;-74
2021/12/29 00:30:30;;;;;;;10.20;6.00;;;;;;;0.33;82.02;95382.96;108078;1284;40522;-74
2021/12/29 00:32:59;;;;;;;15.60;8.00;;;;;;;0.23;81.98;95383.16;107924;1284;35238;-74
2021/12/29 00:35:29;;;;;;;13.30;7.70;;;;;;;0.11;82.19;95387.75;107917;1284;42804;-74
2021/12/29 00:38:02;;;;;;;8.40;4.20;;;;;;;0.06;82.62;95389.62;107911;1283;39155;-74
2021/12/29 00:40:31;;;;;;;13.40;6.90;;;;;;;0.11;82.40;95388.47;107954;1283;34950;-75
2021/12/29 00:42:59;;;;;;;12.30;6.50;;;;;;;0.07;82.61;95386.56;108085;1284;33775;-74
2021/12/29 00:45:31;;;;;;;13.00;6.00;;;;;;;-0.02;82.28;95389.94;107904;1284;29681;-75
2021/12/29 00:48:00;;;;;;;13.90;6.40;;;;;;;-0.05;82.47;95389.70;108090;1284;37983;-74
2021/12/29 00:50:28;;;;;;;12.80;6.40;;;;;;;-0.06;82.44;95391.45;107892;1283;37706;-75
2021/12/29 00:52:56;;;;;;;10.40;6.10;;;;;;;-0.10;82.45;95397.45;107868;1283;40596;-75
2021/12/29 00:55:24;;;;;;;9.60;4.90;;;;;;;-0.15;82.41;95400.13;107922;1283;29034;-75
2021/12/29 00:57:52;;;;;;;15.80;7.20;;;;;;;-0.21;82.46;95398.27;107913;1284;47427;-75
2021/12/29 01:00:23;;;;;;;11.40;5.70;;;;;;;-0.23;82.79;95389.86;107942;1284;39881;-75
2021/12/29 01:02:52;;;;;;;12.90;6.70;;;;;;;-0.17;82.82;95386.45;107889;1283;39682;-75
2021/12/29 01:05:21;;;;;;;9.10;5.10;;;;;;;-0.08;82.88;95378.98;107869;1283;36760;-74
2021/12/29 01:07:49;;;;;;;12.30;6.90;;;;;;;-0.06;82.75;95377.54;107958;1283;30071;-75
2021/12/29 01:10:19;;;;;;;13.10;6.60;;;;;;;-0.04;82.79;95376.20;108069;1284;38208;-75
2021/12/29 01:12:54;;;;;;;8.50;5.60;;;;;;;-0.01;82.96;95369.11;107931;1284;29898;-75
2021/12/29 01:15:28;;;;;;;9.50;5.20;;;;;;;0.03;83.12;95368.23;107882;1283;45873;-75
2021/12/29 01:17:59;;;;;;;12.60;6.20;;;;;;;0.11;83.11;95369.40;107971;1284;34550;-75
2021/12/29 01:20:30;;;;;;;12.40;6.30;;;;;;;0.14;82.85;95369.66;108074;1284;45582;-75
2021/12/29 01:22:59;;;;;;;10.70;6.00;;;;;;;0.14;82.99;95370.02;107898;1284;35508;-75
2021/12/29 01:25:29;;;;;;;10.20;5.70;;;;;;;0.16;82.94;95369.31;107933;1282;31229;-74
2021/12/29 01:27:57;;;;;;;9.90;5.50;;;;;;;0.21;82.94;95371.55;107945;1284;36685;-74
2021/12/29 01:30:27;;;;;;;9.70;5.30;;;;;;;0.22;83.02;95365.06;107961;1284;28666;-75
2021/12/29 01:32:55;;;;;;;9.60;5.20;;;;;;;0.31;83.01;95360.46;107904;1283;38608;-75
2021/12/29 01:35:23;;;;;;;13.10;6.20;;;;;;;0.34;83.03;95357.73;107881;1283;39854;-75
2021/12/29 01:37:52;;;;;;;8.50;5.20;;;;;;;0.33;82.90;95357.41;107869;1284;39627;-75
2021/12/29 01:40:21;;;;;;;9.60;5.20;;;;;;;0.31;82.77;95362.52;107899;1284;37511;-75
2021/12/29 01:42:49;;;;;;;10.60;5.60;;;;;;;0.28;82.62;95367.48;107941;1283;38550;-75
2021/12/29 01:45:17;;;;;;;13.20;6.60;;;;;;;0.21;82.59;95369.73;107881;1284;37938;-75
2021/12/29 01:47:45;;;;;;;11.80;6.10;;;;;;;0.15;82.62;95365.80;107992;1284;38415;-74
2021/12/29 01:50:15;;;;;;;10.30;5.30;;;;;;;0.08;82.74;95360.72;107919;1283;36916;-75
2021/12/29 01:52:50;;;;;;;11.00;6.90;;;;;;;-0.01;82.63;95361.61;107966;1283;36284;-74
2021/12/29 01:55:18;;;;;;;11.40;5.90;;;;;;;-0.10;82.67;95358.95;108045;1283;39552;-75
2021/12/29 01:57:47;;;;;;;10.00;5.90;;;;;;;-0.08;83.19;95357.40;107925;1284;31724;-75
2021/12/29 02:00:19;;;;;;;11.10;6.10;;;;;;;-0.04;83.28;95352.86;108127;1284;38720;-75
2021/12/29 02:02:50;;;;;;;10.40;5.60;;;;;;;-0.08;83.24;95361.48;107955;1283;35138;-75
2021/12/29 02:05:19;;;;;;;9.30;4.80;;;;;;;-0.14;82.99;95363.64;108073;1284;32371;-75
2021/12/29 02:07:47;;;;;;;5.20;3.60;;;;;;;-0.17;83.00;95360.81;107914;1284;42667;-75
2021/12/29 02:10:17;;;;;;;9.30;5.40;;;;;;;-0.11;83.30;95360.33;108025;1284;32385;-75
2021/12/29 02:12:45;;;;;;;9.50;4.80;;;;;;;-0.01;83.75;95355.92;108125;1283;40110;-74
2021/12/29 02:15:14;;;;;;;9.50;4.80;;;;;;;-0.03;83.27;95355.84;107955;1283;32263;-74
2021/12/29 02:17:42;;;;;;;10.10;5.00;;;;;;;-0.09;83.08;95360.31;107994;1284;30857;-75
2021/12/29 02:20:14;;;;;;;7.70;4.40;;;;;;;-0.17;82.97;95361.65;107925;1283;37567;-75
2021/12/29 02:22:46;;;;;;;7.80;4.40;;;;;;;-0.22;83.43;95364.84;108086;1284;36809;-75
2021/12/29 02:25:32;;;;;;;6.90;3.70;;;;;;;-0.23;83.60;95363.05;108115;1284;43880;-75
2021/12/29 02:28:02;;;;;;;9.50;4.90;;;;;;;-0.24;83.71;95364.29;108087;1279;33707;-74
2021/12/29 02:30:30;;;;;;;10.80;4.80;;;;;;;-0.23;83.94;95367.84;107923;1284;36255;-75
2021/12/29 02:33:02;;;;;;;8.40;4.60;;;;;;;-0.28;83.65;95362.02;107907;1284;37665;-75
2021/12/29 02:35:30;;;;;;;6.90;4.50;;;;;;;-0.33;83.76;95358.42;107928;1284;38907;-75
2021/12/29 02:38:00;;;;;;;6.80;4.20;;;;;;;-0.43;83.76;95357.30;107960;1283;33609;-75
2021/12/29 02:40:31;;;;;;;8.80;4.40;;;;;;;-0.47;83.85;95360.79;107964;1283;36817;-75
2021/12/29 02:42:58;;;;;;;;;;;;;;;-0.51;83.79;95361.16;107953;1284;29742;-75
2021/12/29 02:45:27;;;;;;;7.00;4.10;;;;;;;-0.53;84.51;95359.30;107941;1284;33955;-75
2021/12/29 02:47:55;;;;;;;8.30;4.80;;;;;;;-0.54;84.37;95362.20;107865;1281;43131;-75
2021/12/29 02:50:24;;;;;;;7.60;4.50;;;;;;;-0.48;84.52;95359.80;107927;1284;32645;-75
2021/12/29 02:52:52;;;;;;;9.00;4.50;;;;;;;-0.46;84.52;95353.61;107941;1284;38142;-75
2021/12/29 02:55:20;;;;;;;9.90;4.90;;;;;;;-0.53;84.30;95350.72;107926;1282;30726;-75
2021/12/29 02:57:49;;;;;;;11.50;5.70;;;;;;;-0.64;84.45;95350.60;108029;1284;44032;-75
2021/12/29 03:00:19;;;;;;;7.90;4.50;;;;;;;-0.71;84.45;95352.12;107978;1284;34615;-75
2021/12/29 03:02:47;;;;;;;11.10;5.00;;;;;;;-0.73;84.77;95357.17;107917;1284;36265;-75
2021/12/29 03:05:15;;;;;;;7.40;4.20;;;;;;;-0.75;84.70;95356.00;107993;1283;30134;-74
2021/12/29 03:07:46;;;;;;;8.00;3.70;;;;;;;-0.73;85.03;95359.38;107982;1283;37589;-75
2021/12/29 03:10:14;;;;;;;10.00;5.30;;;;;;;-0.56;85.73;95360.60;107981;1283;35134;-75
2021/12/29 03:12:42;;;;;;;7.10;3.90;;;;;;;-0.38;85.70;95360.20;107965;1284;37899;-75
2021/12/29 03:15:11;;;;;;;10.40;5.30;;;;;;;-0.28;85.71;95364.54;107889;1284;40767;-74
2021/12/29 03:17:39;;;;;;;8.40;5.30;;;;;;;-0.11;85.65;95363.27;107953;1284;40270;-75
2021/12/29 03:20:14;;;;;;;9.40;5.40;;;;;;;-0.00;85.68;95360.52;108106;1283;38887;-74
2021/12/29 03:22:43;;;;;;;12.00;5.40;;;;;;;0.10;85.42;95359.02;108017;1283;31470;-74
2021/12/29 03:25:14;;;;;;;9.00;4.20;;;;;;;0.18;85.33;95356.10;107964;1283;35255;-74
2021/12/29 03:27:42;;;;;;;10.10;5.20;;;;;;;0.23;85.11;95353.49;108113;1282;37840;-74
2021/12/29 03:30:13;;;;;;;13.20;5.70;;;;;;;0.27;85.08;95353.17;107932;1281;30290;-75
2021/12/29 03:32:43;;;;;;;;;;;;;;;0.31;85.11;95350.56;108034;1283;36678;-75
2021/12/29 03:35:12;;;;;;;8.80;4.70;;;;;;;0.34;84.97;95345.23;107987;1283;41397;-74
2021/12/29 03:37:40;;;;;;;10.60;5.30;;;;;;;0.35;84.97;95353.37;107923;1283;30878;-75
2021/12/29 03:40:12;;;;;;;8.90;4.90;;;;;;;0.37;84.72;95354.17;107951;1283;31203;-74
2021/12/29 03:42:40;;;;;;;11.20;5.80;;;;;;;0.41;84.94;95346.39;107944;1284;41654;-75
2021/12/29 03:45:10;;;;;;;7.50;4.50;;;;;;;0.41;84.71;95343.83;107896;1281;40848;-74
2021/12/29 03:47:38;;;;;;;9.40;5.20;;;;;;;0.39;84.69;95346.73;108084;1282;37687;-74
2021/12/29 03:50:11;;;;;;;12.00;5.70;;;;;;;0.39;84.79;95351.73;107864;1284;39401;-75
2021/12/29 03:52:40;;;;;;;8.80;5.40;;;;;;;0.43;84.66;95348.23;107906;1283;37602;-74
2021/12/29 03:55:09;;;;;;;9.60;4.30;;;;;;;0.45;84.66;95343.17;107943;1282;34310;-75
2021/12/29 03:57:37;;;;;;;9.90;5.10;;;;;;;0.45;84.83;95348.48;107901;1283;39632;-74
2021/12/29 04:00:10;;;;;;;10.50;5.20;;;;;;;0.43;84.67;95350.89;107919;1283;46230;-74
2021/12/29 04:02:39;;;;;;;9.00;5.30;;;;;;;0.39;84.75;95356.22;107967;1283;39199;-74
2021/12/29 04:05:10;;;;;;;10.50;5.00;;;;;;;0.38;84.70;95362.15;107946;1283;27403;-74
2021/12/29 04:07:38;;;;;;;10.20;5.00;;;;;;;0.37;84.81;95364.55;106079;1283;2564031;-74
2021/12/29 04:10:09;;;;;;;10.30;5.90;;;;;;;0.35;84.65;95370.46;107900;1283;40549;-75
2021/12/29 04:12:39;;;;;;;9.50;4.50;;;;;;;0.34;84.95;95369.48;107928;1283;36726;-75
2021/12/29 04:15:10;;;;;;;11.60;5.50;;;;;;;0.35;85.05;95374.27;107976;1281;33298;-74
2021/12/29 04:17:39;;;;;;;9.90;4.70;;;;;;;0.34;84.83;95378.17;107932;1283;40776;-75
2021/12/29 04:22:57;;;;;;;8.70;4.80;;;;;;;0.34;85.11;95382.55;108078;1283;30922;-74
2021/12/29 04:25:25;;;;;;;7.70;4.90;;;;;;;0.32;84.75;95391.91;107938;1283;37424;-74
2021/12/29 04:27:55;;;;;;;8.00;4.50;;;;;;;0.27;84.98;95394.92;108088;1279;35339;-75
2021/12/29 04:30:26;;;;;;;8.80;4.80;;;;;;;0.23;85.09;95398.33;107943;1283;29170;-74
2021/12/29 04:32:55;;;;;;;6.70;4.10;;;;;;;0.21;84.96;95400.17;107931;1284;39648;-74
2021/12/29 04:35:23;;;;;;;9.50;4.70;;;;;;;0.21;84.99;95408.77;107923;1282;37120;-75
2021/12/29 04:37:52;;;;;;;8.70;4.30;;;;;;;0.22;85.07;95416.60;107964;1283;35766;-75
2021/12/29 04:40:24;;;;;;;10.30;4.50;;;;;;;0.23;85.53;95418.02;107945;1284;33323;-75
2021/12/29 04:42:53;;;;;;;8.00;4.70;;;;;;;0.28;85.33;95417.83;107924;1284;32059;-74
2021/12/29 04:45:23;;;;;;;9.70;5.10;;;;;;;0.35;85.59;95417.65;108050;1284;35333;-75
2021/12/29 04:47:51;;;;;;;7.80;4.20;;;;;;;0.41;85.64;95420.52;107913;1284;34965;-74
2021/12/29 04:50:26;;;;;;;8.50;5.40;;;;;;;0.43;85.72;95424.20;107851;1282;37604;-75
2021/12/29 04:52:56;;;;;;;8.30;5.10;;;;;;;0.45;85.61;95427.48;107924;1283;42037;-75
2021/12/29 04:55:25;;;;;;;9.10;5.70;;;;;;;0.47;85.59;95430.84;107887;1284;37837;-75
2021/12/29 04:57:54;;;;;;;8.40;4.50;;;;;;;0.47;85.49;95431.88;107908;1284;43305;-74
2021/12/29 05:00:25;;;;;;;9.10;5.00;;;;;;;0.50;85.59;95432.95;107909;1282;36813;-75
2021/12/29 05:02:56;;;;;;;8.70;4.60;;;;;;;0.52;85.58;95433.06;107907;1283;37597;-75
2021/12/29 05:05:40;;;;;;;8.00;4.20;;;;;;;0.52;85.45;95434.02;107921;1283;36222;-75
2021/12/29 05:08:28;;;;;;;11.50;5.40;;;;;;;0.51;85.56;95430.71;107923;1283;38188;-75
2021/12/29 05:10:58;;;;;;;8.40;5.10;;;;;;;0.50;85.66;95426.12;108082;1282;30544;-74
2021/12/29 05:13:29;;;;;;;10.40;5.30;;;;;;;0.52;85.49;95431.15;107895;1283;35137;-75
2021/12/29 05:15:57;;;;;;;9.30;4.80;;;;;;;0.48;85.67;95429.13;108018;1282;35628;-75
2021/12/29 05:18:27;;;;;;;7.40;5.10;;;;;;;0.45;85.37;95429.35;108032;1283;37274;-74
2021/12/29 05:20:57;;;;;;;9.70;5.60;;;;;;;0.46;85.80;95425.92;107912;1283;35920;-75
2021/12/29 05:23:25;;;;;;;9.00;4.80;;;;;;;0.49;85.71;95428.13;107933;1282;34304;-74
2021/12/29 05:25:54;;;;;;;7.40;4.50;;;;;;;0.53;85.63;95433.81;107864;1282;36961;-74
2021/12/29 05:28:24;;;;;;;11.20;6.10;;;;;;;0.56;85.68;95431.19;107928;1283;36682;-75
2021/12/29 05:30:54;;;;;;;9.10;4.70;;;;;;;0.58;86.01;95434.20;107968;1283;34278;-75
2021/12/29 05:33:22;;;;;;;10.70;5.70;;;;;;;0.60;85.54;95433.13;107943;1283;41178;-75
2021/12/29 05:35:50;;;;;;;9.60;4.70;;;;;;;0.61;85.97;95438.76;107919;1283;30104;-75
2021/12/29 05:38:19;;;;;;;9.10;5.40;;;;;;;0.61;85.63;95443.92;107866;1283;36029;-75
2021/12/29 05:40:48;;;;;;;9.80;5.00;;;;;;;0.63;85.73;95446.85;107910;1284;40305;-75
2021/12/29 05:43:19;;;;;;;10.90;5.80;;;;;;;0.65;85.80;95457.20;107995;1282;40902;-74
2021/12/29 05:45:49;;;;;;;8.20;5.50;;;;;;;0.68;85.43;95458.80;107972;1283;36124;-75
2021/12/29 05:48:17;;;;;;;6.70;4.10;;;;;;;0.70;85.84;95458.46;107909;1284;47708;-74
2021/12/29 05:50:46;;;;;;;10.90;5.90;;;;;;;0.73;85.48;95454.81;107966;1283;46394;-74
2021/12/29 05:53:14;;;;;;;8.50;4.50;;;;;;;0.78;85.61;95456.95;108087;1281;27988;-74
2021/12/29 05:55:45;;;;;;;10.60;4.90;;;;;;;0.79;85.31;95461.59;108003;1283;30151;-75
2021/12/29 05:58:13;;;;;;;8.20;4.60;;;;;;;0.80;85.33;95467.70;108107;1283;37339;-74
2021/12/29 06:00:43;;;;;;;9.40;5.70;;;;;;;0.80;85.08;95466.55;108065;1283;36320;-74
2021/12/29 06:03:11;;;;;;;10.60;5.30;;;;;;;0.82;85.08;95468.30;107920;1282;37558;-74
2021/12/29 06:05:40;;;;;;;9.60;4.90;;;;;;;0.83;84.99;95467.05;107972;1282;33630;-75
2021/12/29 06:08:09;;;;;;;9.30;5.00;;;;;;;0.83;85.22;95473.94;107885;1283;39383;-74
2021/12/29 06:10:37;;;;;;;10.70;4.70;;;;;;;0.82;84.76;95476.59;108126;1283;30771;-74
2021/12/29 06:13:05;;;;;;;8.90;4.70;;;;;;;0.81;84.84;95480.02;107950;1282;36651;-74
2021/12/29 06:15:36;;;;;;;7.70;4.10;;;;;;;0.79;84.75;95484.08;107920;1283;28937;-74
2021/12/29 06:18:06;;;;;;;11.60;5.10;;;;;;;0.79;84.88;95490.03;107944;1283;32399;-74
2021/12/29 06:20:38;;;;;;;9.00;5.30;;;;;;;0.78;84.78;95494.52;107825;1283;40190;-75
2021/12/29 06:23:06;;;;;;;9.20;5.50;;;;;;;0.76;84.76;95495.53;108053;1282;38384;-74
2021/12/29 06:25:35;;;;;;;8.20;4.50;;;;;;;0.76;84.85;95498.23;107889;1284;38486;-74
2021/12/29 06:28:04;;;;;;;9.20;5.50;;;;;;;0.76;84.92;95500.48;106404;1282;2247885;-74
2021/12/29 06:30:32;;;;;;;9.40;4.10;;;;;;;0.78;84.81;95508.95;107916;1283;38385;-74
2021/12/29 06:33:00;;;;;;;10.40;5.70;;;;;;;0.80;84.46;95509.18;108017;1283;30493;-74
2021/12/29 06:35:29;;;;;;;8.40;4.70;;;;;;;0.81;84.73;95516.81;106317;1283;2171939;-74
2021/12/29 06:37:57;;;;;;;10.50;5.00;;;;;;;0.81;84.46;95523.59;107965;1283;28843;-74
2021/12/29 06:40:25;;;;;;;9.10;5.30;;;;;;;0.81;84.31;95526.05;108008;1283;39211;-74
2021/12/29 06:42:54;;;;;;;8.70;4.90;;;;;;;0.81;84.57;95530.80;107889;1283;29050;-74
2021/12/29 06:45:22;;;;;;;9.80;5.20;;;;;;;0.81;84.23;95530.12;107902;1282;35397;-74
2021/12/29 06:47:50;;;;;;;10.30;4.90;;;;;;;0.81;84.44;95529.13;108057;1282;35510;-75
2021/12/29 06:50:18;;;;;;;7.90;4.60;;;;;;;0.80;84.33;95534.59;107931;1283;40888;-75
2021/12/29 06:52:47;;;;;;;8.00;4.90;;;;;;;0.80;84.35;95536.58;107969;1282;40896;-74
2021/12/29 06:55:16;;;;;;;5.80;3.60;;;;;;;0.81;84.41;95535.65;108013;1283;28950;-74
2021/12/29 06:57:44;;;;;;;7.00;3.90;;;;;;;0.81;84.55;95540.81;107986;1283;32807;-74
2021/12/29 07:00:14;;;;;;;8.50;4.80;;;;;;;0.83;84.47;95542.02;107991;1282;29539;-75
2021/12/29 07:02:49;;;;;;;9.30;5.10;;;;;;;0.83;84.52;95545.90;107944;1284;35794;-75
2021/12/29 07:05:18;;;;;;;9.80;4.50;;;;;;;0.84;84.15;95546.11;108040;1283;33451;-75
2021/12/29 07:07:49;;;;;;;7.80;4.10;;;;;;;0.85;84.27;95544.53;107976;1284;32621;-75
2021/12/29 07:10:19;;;;;;;8.70;4.20;;;;;;;0.89;84.08;95546.98;107939;1282;36441;-75
2021/12/29 07:12:48;;;;;;;7.70;3.80;;;;;;;0.92;84.14;95544.70;107909;1281;37730;-75
2021/12/29 07:15:17;;;;;;;7.00;4.20;;;;;;;0.95;84.16;95548.64;108008;1283;32247;-75
2021/12/29 07:17:45;;;;;;;6.20;3.40;;;;;;;0.96;83.94;95549.91;108004;1283;33856;-74
2021/12/29 07:20:14;;;;;;;9.00;4.10;;;;;;;0.98;84.11;95554.94;107917;1282;36286;-74
2021/12/29 07:22:42;;;;;;;5.40;3.40;;;;;;;1.01;83.89;95553.06;107964;1282;39917;-74
2021/12/29 07:25:10;;;;;;;7.20;3.80;;;;;;;1.02;83.88;95548.48;107907;1281;32688;-75
2021/12/29 07:27:38;;;;;;;5.20;3.00;;;;;;;1.04;83.78;95545.05;107867;1283;45294;-74
2021/12/29 07:30:09;;;;;;;7.20;4.00;;;;;;;1.04;83.94;95539.31;108070;1282;38045;-75
2021/12/29 07:32:37;;;;;;;9.70;4.60;;;;;;;1.04;83.81;95542.77;107924;1283;39523;-75
2021/12/29 07:35:08;;;;;;;6.60;3.40;;;;;;;1.04;83.95;95541.87;107770;1280;114360;-75
2021/12/29 07:37:36;;;;;;;4.00;2.50;;;;;;;1.05;84.04;95543.14;107906;1283;40564;-75
2021/12/29 07:40:08;;;;;;;8.50;4.70;;;;;;;1.06;83.85;95539.08;107866;1281;38094;-75
2021/12/29 07:42:38;;;;;;;8.50;4.80;;;;;;;1.08;83.65;95551.20;108063;1281;29088;-75
2021/12/29 07:45:09;;;;;;;8.40;3.90;;;;;;;1.09;83.68;95553.30;107921;1282;44107;-75
2021/12/29 07:47:41;;;;;;;6.50;3.40;;;;;;;1.09;83.67;95557.22;107991;1283;38843;-75
2021/12/29 07:50:10;;;;;;;5.80;3.50;;;;;;;1.10;83.64;95564.44;107974;1283;38438;-75
2021/12/29 07:52:38;;;;;;;6.80;4.00;;;;;;;1.12;83.43;95567.98;107965;1283;27251;-75
2021/12/29 07:55:09;;;;;;;6.50;3.20;;;;;;;1.12;83.60;95577.02;107906;1282;37444;-75
2021/12/29 07:57:36;;;;;;;;;;;;;;;1.11;83.37;95574.71;107937;1282;37609;-75
2021/12/29 08:00:07;;;;;;;10.20;5.00;;;;;;;1.09;83.72;95580.77;107954;1283;29184;-75
2021/12/29 08:02:36;;;;;;;9.60;4.70;;;;;;;1.09;83.97;95581.17;107952;1283;37047;-75
2021/12/29 08:05:08;;;;;;;8.60;4.80;;;;;;;1.10;83.98;95586.30;107886;1282;40389;-75
2021/12/29 08:07:36;;;;;;;8.80;5.40;;;;;;;1.10;84.11;95588.45;108060;1283;46315;-75
2021/12/29 08:10:06;;;;;;;8.10;5.00;;;;;;;1.11;84.16;95591.63;107951;1283;30547;-75
2021/12/29 08:12:35;;;;;;;10.70;5.20;;;;;;;1.13;84.06;95592.26;107993;1281;36649;-75
2021/12/29 08:15:04;;;;;;;8.30;5.30;;;;;;;1.14;84.14;95589.98;108050;1284;41249;-75
2021/12/29 08:17:33;;;;;;;9.40;4.80;;;;;;;1.14;84.12;95586.89;107884;1283;43466;-75
2021/12/29 08:20:04;;;;;;;4.70;3.50;;;;;;;1.13;84.12;95588.97;107934;1283;33217;-75
2021/12/29 08:22:33;;;;;;;9.10;4.80;;;;;;;1.15;84.19;95591.29;107918;1284;38431;-75
2021/12/29 08:25:06;;;;;;;8.30;4.40;;;;;;;1.16;84.23;95591.04;108060;1282;33198;-75
2021/12/29 08:27:35;;;;;;;11.20;6.00;;;;;;;1.16;84.26;95595.95;107962;1282;30104;-75
2021/12/29 08:30:07;;;;;;;10.60;5.60;;;;;;;1.18;84.05;95602.34;107907;1283;33251;-75
2021/12/29 08:32:35;;;;;;;11.40;6.10;;;;;;;1.21;84.29;95599.74;108107;1282;33029;-75
2021/12/29 08:35:04;;;;;;;9.10;5.30;;;;;;;1.21;84.28;95600.63;107917;1281;41560;-75
2021/12/29 08:37:34;;;;;;;10.70;4.80;;;;;;;1.23;84.31;95604.55;107926;1282;33151;-75
2021/12/29 08:40:07;;;;;;;10.60;5.60;;;;;;;1.27;84.28;95604.29;107928;1283;39193;-75
2021/12/29 08:42:36;;;;;;;7.80;4.20;;;;;;;1.30;84.35;95608.94;108085;1283;30343;-75
2021/12/29 08:45:06;;;;;;;9.00;5.20;;;;;;;1.29;84.43;95605.85;107911;1282;37303;-75
2021/12/29 08:47:35;;;;;;;10.30;4.90;;;;;;;1.29;84.42;95606.52;107913;1283;38168;-75
2021/12/29 08:50:06;;;;;;;9.50;5.10;;;;;;;1.30;84.65;95611.60;107937;1281;34227;-75
2021/12/29 08:52:35;;;;;;;8.70;5.30;;;;;;;1.34;84.69;95609.23;107959;1283;31761;-76
2021/12/29 08:55:05;;;;;;;10.30;5.80;;;;;;;1.36;84.81;95612.50;107926;1283;37506;-75
2021/12/29 08:57:33;;;;;;;14.80;5.60;;;;;;;1.39;85.01;95611.85;107931;1282;33802;-75
2021/12/29 09:00:02;;;;;;;10.10;6.70;;;;;;;1.39;84.79;95615.09;107943;1281;26848;-75
2021/12/29 09:02:32;;;;;;;12.70;6.30;;;;;;;1.36;84.71;95613.80;107946;1283;33971;-76
2021/12/29 09:05:01;;;;;;;12.80;6.50;;;;;;;1.36;84.72;95614.02;107921;1281;34886;-75
2021/12/29 09:07:30;;;;;;;11.50;6.30;;;;;;;1.38;84.82;95615.17;108056;1276;38032;-75
2021/12/29 09:09:58;;;;;;;8.30;5.50;;;;;;;1.39;84.74;95618.00;107907;1282;38056;-75
2021/12/29 09:12:27;;;;;;;8.80;6.10;;;;;;;1.38;84.88;95619.15;107925;1281;38600;-76
2021/12/29 09:14:55;;;;;;;10.60;6.40;;;;;;;1.37;84.91;95623.48;107928;1283;30965;-76
2021/12/29 09:17:25;;;;;;;11.40;6.50;;;;;;;1.40;84.98;95621.31;107905;1283;41347;-76
2021/12/29 09:19:54;;;;;;;11.90;6.20;;;;;;;1.41;84.96;95618.05;108126;1283;33374;-75
2021/12/29 09:22:26;;;;;;;10.70;6.20;;;;;;;1.42;85.00;95614.67;107931;1283;33759;-75
2021/12/29 09:24:54;;;;;;;12.60;6.80;;;;;;;1.39;85.04;95614.56;107861;1282;38547;-76
2021/12/29 09:27:25;;;;;;;8.90;5.50;;;;;;;1.39;84.99;95619.27;108083;1282;28405;-75
2021/12/29 09:29:55;;;;;;;10.70;6.20;;;;;;;1.41;85.00;95618.64;107908;1283;45143;-75
2021/12/29 09:32:29;;;;;;;11.20;6.70;;;;;;;1.42;84.85;95614.98;108052;1283;37274;-75
2021/12/29 09:34:59;;;;;;;11.70;6.50;;;;;;;1.41;84.97;95613.05;107907;1282;37473;-74
2021/12/29 09:37:27;;;;;;;;;;;;;;;1.39;85.02;95622.80;107938;1282;27676;-74
2021/12/29 09:39:55;;;;;;;9.80;5.00;;;;;;;1.36;85.22;95616.46;107927;1283;35456;-74
2021/12/29 09:42:26;;;;;;;9.50;5.30;;;;;;;1.32;85.53;95615.70;108076;1281;38491;-74
2021/12/29 09:44:55;;;;;;;13.50;7.10;;;;;;;1.27;85.72;95620.70;107896;1282;37896;-74
2021/12/29 09:47:28;;;;;;;11.00;6.60;;;;;;;1.24;86.10;95622.64;107900;1283;32682;-74
2021/12/29 09:49:56;;;;;;;9.40;5.50;;;;;;;1.24;86.34;95623.38;108012;1281;40718;-75
2021/12/29 09:52:29;;;;;;;15.40;7.60;;;;;;;1.22;86.54;95623.86;107905;1283;33512;-75
2021/12/29 09:54:59;;;;;;;11.40;6.80;;;;;;;1.16;86.87;95625.70;107884;1283;46953;-75
2021/12/29 09:57:27;;;;;;;14.90;7.50;;;;;;;1.13;87.15;95629.33;107940;1283;34153;-75
2021/12/29 09:59:55;;;;;;;9.60;5.40;;;;;;;1.11;87.57;95629.11;107915;1282;42654;-75
2021/12/29 10:02:26;;;;;;;10.00;5.30;;;;;;;1.12;87.90;95627.94;107947;1283;30687;-75
2021/12/29 10:04:56;;;;;;;12.10;5.60;;;;;;;1.11;88.22;95625.03;107908;1282;31286;-75
2021/12/29 10:07:25;;;;;;;;;;;;;;;1.09;88.81;95630.86;107959;1281;35103;-74
2021/12/29 10:09:53;;;;;;;9.80;4.90;;;;;;;1.07;89.06;95629.23;107918;1283;35609;-74
2021/12/29 10:12:22;;;;;;;12.40;6.80;;;;;;;1.07;89.06;95630.44;107896;1283;38168;-74
2021/12/29 10:14:52;;;;;;;12.50;6.60;;;;;;;1.07;89.43;95634.87;107987;1282;32697;-75
2021/12/29 10:17:25;;;;;;;10.30;6.20;;;;;;;1.07;89.70;95630.28;108097;1282;29295;-75
2021/12/29 10:20:04;;;;;;;15.10;7.60;;;;;;;1.08;89.73;95630.02;107924;1283;38366;-74
2021/12/29 10:22:35;;;;;;;13.80;8.00;;;;;;;1.10;89.88;95630.30;108089;1282;38509;-75
2021/12/29 10:25:08;;;;;;;15.20;7.50;;;;;;;1.11;90.09;95631.94;107912;1281;38165;-74
2021/12/29 10:27:38;;;;;;;11.80;6.50;;;;;;;1.12;90.08;95634.29;108098;1281;42270;-75
2021/12/29 10:30:18;;;;;;;11.50;7.10;;;;;;;1.15;90.41;95639.36;107926;1283;35265;-74
2021/12/29 10:32:46;;;;;;;;;;;;;;;1.19;90.56;95639.92;108038;1283;30621;-74
2021/12/29 10:35:25;;;;;;;16.90;7.90;;;;;;;1.22;90.42;95637.45;107954;1281;35428;-74
2021/12/29 10:37:56;;;;;;;14.00;6.20;;;;;;;1.27;90.34;95635.42;107902;1281;36011;-75
2021/12/29 10:40:29;;;;;;;12.50;7.70;;;;;;;1.29;90.32;95636.23;108118;1278;32465;-74
2021/12/29 10:43:00;;;;;;;14.40;7.90;;;;;;;1.29;90.44;95634.16;107882;1282;38402;-74
2021/12/29 10:45:34;;;;;;;15.20;6.70;;;;;;;1.30;90.34;95641.68;108100;1283;36483;-75
2021/12/29 10:48:16;;;;;;;13.50;7.60;;;;;;;1.32;90.60;95635.69;107954;1283;38210;-75
2021/12/29 10:50:55;;;;;;;12.70;7.70;;;;;;;1.33;90.36;95638.11;107993;1282;37062;-74
2021/12/29 10:53:25;;;;;;;10.70;5.50;;;;;;;1.34;90.37;95635.09;107891;1282;40002;-76
2021/12/29 10:55:54;;;;;;;13.10;6.90;;;;;;;1.38;90.36;95639.10;108090;1281;36022;-76
2021/12/29 10:58:25;;;;;;;15.10;8.20;;;;;;;1.42;90.42;95637.54;107906;1283;38818;-76
2021/12/29 11:01:01;;;;;;;12.80;7.60;;;;;;;1.45;90.31;95638.41;107900;1283;38439;-75
2021/12/29 11:03:33;;;;;;;9.50;5.20;;;;;;;1.44;90.41;95640.96;108103;1283;29288;-75
2021/12/29 11:06:04;;;;;;;13.50;7.80;;;;;;;1.44;90.12;95640.34;108163;1283;39865;-75
2021/12/29 11:08:32;;;;;;;;;;;;;;;1.46;90.22;95634.09;107945;1281;29066;-76
2021/12/29 11:11:06;;;;;;;13.00;7.50;;;;;;;1.46;90.11;95631.38;107898;1283;42285;-76
2021/12/29 11:13:35;;;;;;;12.90;7.70;;;;;;;1.48;89.99;95630.61;107873;1283;53723;-76
2021/12/29 11:16:05;;;;;;;16.90;8.00;;;;;;;1.49;90.11;95633.85;107888;1283;34777;-75
2021/12/29 11:18:44;;;;;;;14.10;8.20;;;;;;;1.52;90.08;95630.53;107961;1283;28369;-76
2021/12/29 11:21:15;;;;;;;12.40;7.50;;;;;;;1.55;89.95;95633.45;107915;1283;35158;-75
2021/12/29 11:23:43;;;;;;;13.70;6.60;;;;;;;1.57;89.88;95631.76;107989;1282;47911;-76
2021/12/29 11:26:12;;;;;;;12.50;7.30;;;;;;;1.63;89.71;95631.86;107884;1283;43260;-75
2021/12/29 11:28:40;;;;;;;14.30;8.20;;;;;;;1.66;89.65;95628.23;108106;1282;32287;-75
2021/12/29 11:31:11;;;;;;;18.40;6.30;;;;;;;1.66;89.64;95629.11;107915;1283;34767;-75
2021/12/29 11:33:40;;;;;;;9.10;5.10;;;;;;;1.66;89.65;95629.42;107911;1281;37008;-75
2021/12/29 11:36:08;;;;;;;13.60;8.00;;;;;;;1.67;89.63;95632.73;107884;1283;35380;-75
2021/12/29 11:38:36;;;;;;;12.80;6.50;;;;;;;1.69;89.58;95635.06;107939;1283;31211;-75
2021/12/29 11:41:06;;;;;;;16.20;9.70;;;;;;;1.72;89.56;95641.48;108089;1282;32407;-76
2021/12/29 11:43:34;;;;;;;20.80;12.30;;;;;;;1.73;89.59;95643.27;107880;1283;38226;-76